sensor_id;sensor_type;location;lat;lon;timestamp;temperature;humidity
51855;DHT22;37895;53.240;6.572;2023-06-10T00:00:34;18.20;94.10
51855;DHT22;37895;53.240;6.572;2023-06-10T00:02:59;18.10;94.20
51855;DHT22;37895;53.240;6.572;2023-06-10T00:05:25;18.00;94.30
51855;DHT22;37895;53.240;6.572;2023-06-10T00:07:55;18.00;94.30
51855;DHT22;37895;53.240;6.572;2023-06-10T00:10:22;18.00;94.30
51855;DHT22;37895;53.240;6.572;2023-06-10T00:12:48;17.90;94.30
51855;DHT22;37895;53.240;6.572;2023-06-10T00:15:13;17.80;94.70
51855;DHT22;37895;53.240;6.572;2023-06-10T00:17:39;17.80;94.50
51855;DHT22;37895;53.240;6.572;2023-06-10T00:20:09;17.80;94.50
51855;DHT22;37895;53.240;6.572;2023-06-10T00:22:38;17.70;94.50
51855;DHT22;37895;53.240;6.572;2023-06-10T00:25:05;17.70;94.40
51855;DHT22;37895;53.240;6.572;2023-06-10T00:27:31;17.70;94.50
51855;DHT22;37895;53.240;6.572;2023-06-10T00:30:04;17.60;94.60
51855;DHT22;37895;53.240;6.572;2023-06-10T00:32:32;17.70;94.50
51855;DHT22;37895;53.240;6.572;2023-06-10T00:34:58;17.60;94.30
51855;DHT22;37895;53.240;6.572;2023-06-10T00:37:24;17.70;94.30
51855;DHT22;37895;53.240;6.572;2023-06-10T00:39:49;17.60;94.30
51855;DHT22;37895;53.240;6.572;2023-06-10T00:42:15;17.60;94.40
51855;DHT22;37895;53.240;6.572;2023-06-10T00:44:41;17.60;94.50
51855;DHT22;37895;53.240;6.572;2023-06-10T00:47:07;17.60;94.40
51855;DHT22;37895;53.240;6.572;2023-06-10T00:49:33;17.70;94.40
51855;DHT22;37895;53.240;6.572;2023-06-10T00:51:59;17.60;94.30
51855;DHT22;37895;53.240;6.572;2023-06-10T00:54:24;17.60;94.20
51855;DHT22;37895;53.240;6.572;2023-06-10T00:56:51;17.60;94.10
51855;DHT22;37895;53.240;6.572;2023-06-10T00:59:17;17.60;94.20
51855;DHT22;37895;53.240;6.572;2023-06-10T01:01:43;17.60;94.10
51855;DHT22;37895;53.240;6.572;2023-06-10T01:04:12;17.50;94.00
51855;DHT22;37895;53.240;6.572;2023-06-10T01:09:22;17.40;94.10
51855;DHT22;37895;53.240;6.572;2023-06-10T01:12:05;17.40;94.20
51855;DHT22;37895;53.240;6.572;2023-06-10T01:14:35;17.40;94.00
51855;DHT22;37895;53.240;6.572;2023-06-10T01:17:01;17.30;94.00
51855;DHT22;37895;53.240;6.572;2023-06-10T01:19:28;17.20;94.00
51855;DHT22;37895;53.240;6.572;2023-06-10T01:21:56;17.10;94.00
51855;DHT22;37895;53.240;6.572;2023-06-10T01:24:28;17.10;94.10
51855;DHT22;37895;53.240;6.572;2023-06-10T01:26:55;17.10;94.10
51855;DHT22;37895;53.240;6.572;2023-06-10T01:29:36;17.00;94.00
51855;DHT22;37895;53.240;6.572;2023-06-10T01:32:18;17.00;93.90
51855;DHT22;37895;53.240;6.572;2023-06-10T01:34:48;16.90;93.90
51855;DHT22;37895;53.240;6.572;2023-06-10T01:37:17;16.90;94.10
51855;DHT22;37895;53.240;6.572;2023-06-10T01:39:45;16.80;94.10
51855;DHT22;37895;53.240;6.572;2023-06-10T01:42:11;16.70;94.20
51855;DHT22;37895;53.240;6.572;2023-06-10T01:44:38;16.70;94.40
51855;DHT22;37895;53.240;6.572;2023-06-10T01:47:04;16.60;94.60
51855;DHT22;37895;53.240;6.572;2023-06-10T01:49:29;16.60;94.80
51855;DHT22;37895;53.240;6.572;2023-06-10T01:51:55;16.60;94.90
51855;DHT22;37895;53.240;6.572;2023-06-10T01:54:21;16.60;94.90
51855;DHT22;37895;53.240;6.572;2023-06-10T01:56:46;16.50;95.00
51855;DHT22;37895;53.240;6.572;2023-06-10T01:59:12;16.50;95.10
51855;DHT22;37895;53.240;6.572;2023-06-10T02:01:37;16.30;95.20
51855;DHT22;37895;53.240;6.572;2023-06-10T02:04:03;16.40;95.40
51855;DHT22;37895;53.240;6.572;2023-06-10T02:06:29;16.30;95.40
51855;DHT22;37895;53.240;6.572;2023-06-10T02:08:54;16.30;95.50
51855;DHT22;37895;53.240;6.572;2023-06-10T02:11:20;16.20;95.70
51855;DHT22;37895;53.240;6.572;2023-06-10T02:13:45;16.10;96.00
51855;DHT22;37895;53.240;6.572;2023-06-10T02:16:11;16.00;96.20
51855;DHT22;37895;53.240;6.572;2023-06-10T02:18:38;15.90;96.40
51855;DHT22;37895;53.240;6.572;2023-06-10T02:21:03;15.80;96.60
51855;DHT22;37895;53.240;6.572;2023-06-10T02:23:29;15.80;96.60
51855;DHT22;37895;53.240;6.572;2023-06-10T02:25:54;15.80;96.70
51855;DHT22;37895;53.240;6.572;2023-06-10T02:28:20;15.70;96.90
51855;DHT22;37895;53.240;6.572;2023-06-10T02:30:46;15.70;97.10
51855;DHT22;37895;53.240;6.572;2023-06-10T02:33:12;15.60;97.20
51855;DHT22;37895;53.240;6.572;2023-06-10T02:35:38;15.60;97.30
51855;DHT22;37895;53.240;6.572;2023-06-10T02:38:04;15.50;97.50
51855;DHT22;37895;53.240;6.572;2023-06-10T02:40:30;15.40;97.90
51855;DHT22;37895;53.240;6.572;2023-06-10T02:42:57;15.30;98.30
51855;DHT22;37895;53.240;6.572;2023-06-10T02:45:23;15.20;98.50
51855;DHT22;37895;53.240;6.572;2023-06-10T02:47:49;15.10;98.70
51855;DHT22;37895;53.240;6.572;2023-06-10T02:50:15;15.10;98.90
51855;DHT22;37895;53.240;6.572;2023-06-10T02:52:41;15.00;99.00
51855;DHT22;37895;53.240;6.572;2023-06-10T02:55:07;15.00;99.30
51855;DHT22;37895;53.240;6.572;2023-06-10T02:57:32;14.90;99.60
51855;DHT22;37895;53.240;6.572;2023-06-10T02:59:58;14.80;99.80
51855;DHT22;37895;53.240;6.572;2023-06-10T03:02:24;14.80;99.90
51855;DHT22;37895;53.240;6.572;2023-06-10T03:04:55;14.70;99.90
51855;DHT22;37895;53.240;6.572;2023-06-10T03:07:21;14.60;99.90
51855;DHT22;37895;53.240;6.572;2023-06-10T03:09:47;14.60;99.90
51855;DHT22;37895;53.240;6.572;2023-06-10T03:12:12;14.60;99.90
51855;DHT22;37895;53.240;6.572;2023-06-10T03:14:38;14.60;99.90
51855;DHT22;37895;53.240;6.572;2023-06-10T03:17:05;14.60;99.90
51855;DHT22;37895;53.240;6.572;2023-06-10T03:19:30;14.60;99.90
51855;DHT22;37895;53.240;6.572;2023-06-10T03:22:15;14.70;99.90
51855;DHT22;37895;53.240;6.572;2023-06-10T03:24:41;14.70;99.90
51855;DHT22;37895;53.240;6.572;2023-06-10T03:27:09;14.80;99.90
51855;DHT22;37895;53.240;6.572;2023-06-10T03:29:36;14.70;99.90
51855;DHT22;37895;53.240;6.572;2023-06-10T03:32:02;14.70;99.90
51855;DHT22;37895;53.240;6.572;2023-06-10T03:34:28;14.70;99.90
51855;DHT22;37895;53.240;6.572;2023-06-10T03:36:53;14.70;99.90
51855;DHT22;37895;53.240;6.572;2023-06-10T03:39:19;14.60;99.90
51855;DHT22;37895;53.240;6.572;2023-06-10T03:41:45;14.60;99.90
51855;DHT22;37895;53.240;6.572;2023-06-10T03:44:10;14.60;99.90
51855;DHT22;37895;53.240;6.572;2023-06-10T03:46:36;14.60;99.90
51855;DHT22;37895;53.240;6.572;2023-06-10T03:49:02;14.50;99.90
51855;DHT22;37895;53.240;6.572;2023-06-10T03:51:29;14.60;99.90
51855;DHT22;37895;53.240;6.572;2023-06-10T03:53:55;14.60;99.90
51855;DHT22;37895;53.240;6.572;2023-06-10T03:56:20;14.60;99.90
51855;DHT22;37895;53.240;6.572;2023-06-10T03:58:46;14.60;99.90
51855;DHT22;37895;53.240;6.572;2023-06-10T04:01:11;14.60;99.90
51855;DHT22;37895;53.240;6.572;2023-06-10T04:03:38;14.70;99.90
51855;DHT22;37895;53.240;6.572;2023-06-10T04:06:09;14.60;99.90
51855;DHT22;37895;53.240;6.572;2023-06-10T04:08:34;14.70;99.90
51855;DHT22;37895;53.240;6.572;2023-06-10T04:11:01;14.70;99.90
51855;DHT22;37895;53.240;6.572;2023-06-10T04:13:27;14.70;99.90
51855;DHT22;37895;53.240;6.572;2023-06-10T04:15:53;14.60;99.90
51855;DHT22;37895;53.240;6.572;2023-06-10T04:18:19;14.60;99.90
51855;DHT22;37895;53.240;6.572;2023-06-10T04:20:46;14.60;99.90
51855;DHT22;37895;53.240;6.572;2023-06-10T04:23:11;14.60;99.90
51855;DHT22;37895;53.240;6.572;2023-06-10T04:25:37;14.60;99.90
51855;DHT22;37895;53.240;6.572;2023-06-10T04:28:03;14.60;99.90
51855;DHT22;37895;53.240;6.572;2023-06-10T04:30:28;14.60;99.90
51855;DHT22;37895;53.240;6.572;2023-06-10T04:32:54;14.70;99.90
51855;DHT22;37895;53.240;6.572;2023-06-10T04:35:19;14.70;99.90
51855;DHT22;37895;53.240;6.572;2023-06-10T04:37:45;14.70;99.90
51855;DHT22;37895;53.240;6.572;2023-06-10T04:40:11;14.70;99.90
51855;DHT22;37895;53.240;6.572;2023-06-10T04:42:37;14.70;99.90
51855;DHT22;37895;53.240;6.572;2023-06-10T04:45:03;14.70;99.90
51855;DHT22;37895;53.240;6.572;2023-06-10T04:47:32;14.70;99.90
51855;DHT22;37895;53.240;6.572;2023-06-10T04:50:03;14.80;99.90
51855;DHT22;37895;53.240;6.572;2023-06-10T04:52:29;14.80;99.90
51855;DHT22;37895;53.240;6.572;2023-06-10T04:54:57;14.80;99.90
51855;DHT22;37895;53.240;6.572;2023-06-10T04:57:23;14.90;99.90
51855;DHT22;37895;53.240;6.572;2023-06-10T04:59:49;14.90;99.90
51855;DHT22;37895;53.240;6.572;2023-06-10T05:02:15;15.00;99.90
51855;DHT22;37895;53.240;6.572;2023-06-10T05:04:40;15.10;99.90
51855;DHT22;37895;53.240;6.572;2023-06-10T05:07:06;15.20;99.90
51855;DHT22;37895;53.240;6.572;2023-06-10T05:09:32;15.20;99.90
51855;DHT22;37895;53.240;6.572;2023-06-10T05:11:58;15.20;99.90
51855;DHT22;37895;53.240;6.572;2023-06-10T05:14:24;15.20;99.90
51855;DHT22;37895;53.240;6.572;2023-06-10T05:16:50;15.30;99.90
51855;DHT22;37895;53.240;6.572;2023-06-10T05:19:16;15.30;99.90
51855;DHT22;37895;53.240;6.572;2023-06-10T05:21:41;15.40;99.90
51855;DHT22;37895;53.240;6.572;2023-06-10T05:24:07;15.40;99.90
51855;DHT22;37895;53.240;6.572;2023-06-10T05:26:33;15.40;99.90
51855;DHT22;37895;53.240;6.572;2023-06-10T05:29:03;15.50;99.90
51855;DHT22;37895;53.240;6.572;2023-06-10T05:31:29;15.50;99.90
51855;DHT22;37895;53.240;6.572;2023-06-10T05:39:44;15.60;99.90
51855;DHT22;37895;53.240;6.572;2023-06-10T05:42:10;15.70;99.90
51855;DHT22;37895;53.240;6.572;2023-06-10T05:44:36;15.80;99.90
51855;DHT22;37895;53.240;6.572;2023-06-10T05:47:02;15.90;99.90
51855;DHT22;37895;53.240;6.572;2023-06-10T05:49:28;15.90;99.90
51855;DHT22;37895;53.240;6.572;2023-06-10T05:51:53;15.90;99.90
51855;DHT22;37895;53.240;6.572;2023-06-10T05:54:21;16.00;99.90
51855;DHT22;37895;53.240;6.572;2023-06-10T05:56:47;15.90;99.90
51855;DHT22;37895;53.240;6.572;2023-06-10T05:59:12;15.90;99.90
51855;DHT22;37895;53.240;6.572;2023-06-10T06:01:38;16.00;99.90
51855;DHT22;37895;53.240;6.572;2023-06-10T06:04:04;15.90;99.90
51855;DHT22;37895;53.240;6.572;2023-06-10T06:06:30;15.90;99.90
51855;DHT22;37895;53.240;6.572;2023-06-10T06:08:55;16.00;99.90
51855;DHT22;37895;53.240;6.572;2023-06-10T06:11:21;16.00;99.90
51855;DHT22;37895;53.240;6.572;2023-06-10T06:13:47;16.10;99.90
51855;DHT22;37895;53.240;6.572;2023-06-10T06:16:13;16.10;99.90
51855;DHT22;37895;53.240;6.572;2023-06-10T06:18:39;16.10;99.90
51855;DHT22;37895;53.240;6.572;2023-06-10T06:21:05;16.10;99.90
51855;DHT22;37895;53.240;6.572;2023-06-10T06:23:30;16.10;99.90
51855;DHT22;37895;53.240;6.572;2023-06-10T06:25:56;16.20;99.90
51855;DHT22;37895;53.240;6.572;2023-06-10T06:28:23;16.20;99.90
51855;DHT22;37895;53.240;6.572;2023-06-10T06:30:56;16.20;99.90
51855;DHT22;37895;53.240;6.572;2023-06-10T06:33:22;16.30;99.90
51855;DHT22;37895;53.240;6.572;2023-06-10T06:35:48;16.40;99.90
51855;DHT22;37895;53.240;6.572;2023-06-10T06:38:13;16.30;99.90
51855;DHT22;37895;53.240;6.572;2023-06-10T06:40:39;16.30;99.90
51855;DHT22;37895;53.240;6.572;2023-06-10T06:43:05;16.40;99.90
51855;DHT22;37895;53.240;6.572;2023-06-10T06:45:30;16.50;99.90
51855;DHT22;37895;53.240;6.572;2023-06-10T06:47:56;16.50;99.90
51855;DHT22;37895;53.240;6.572;2023-06-10T06:50:22;16.60;99.90
51855;DHT22;37895;53.240;6.572;2023-06-10T06:52:47;16.60;99.90
51855;DHT22;37895;53.240;6.572;2023-06-10T06:55:13;16.70;99.90
51855;DHT22;37895;53.240;6.572;2023-06-10T06:57:39;16.80;99.90
51855;DHT22;37895;53.240;6.572;2023-06-10T07:00:05;16.80;99.90
51855;DHT22;37895;53.240;6.572;2023-06-10T07:02:31;16.90;99.90
51855;DHT22;37895;53.240;6.572;2023-06-10T07:04:58;17.00;99.90
51855;DHT22;37895;53.240;6.572;2023-06-10T07:07:24;17.10;99.90
51855;DHT22;37895;53.240;6.572;2023-06-10T07:09:50;17.20;99.90
51855;DHT22;37895;53.240;6.572;2023-06-10T07:12:16;17.20;99.90
51855;DHT22;37895;53.240;6.572;2023-06-10T07:14:41;17.30;99.90
51855;DHT22;37895;53.240;6.572;2023-06-10T07:17:07;17.40;99.90
51855;DHT22;37895;53.240;6.572;2023-06-10T07:19:33;17.50;99.90
51855;DHT22;37895;53.240;6.572;2023-06-10T07:21:58;17.50;99.90
51855;DHT22;37895;53.240;6.572;2023-06-10T07:24:24;17.50;99.90
51855;DHT22;37895;53.240;6.572;2023-06-10T07:26:50;17.50;99.90
51855;DHT22;37895;53.240;6.572;2023-06-10T07:29:16;17.60;99.90
51855;DHT22;37895;53.240;6.572;2023-06-10T07:31:41;17.60;99.90
51855;DHT22;37895;53.240;6.572;2023-06-10T07:34:07;17.70;99.90
51855;DHT22;37895;53.240;6.572;2023-06-10T07:36:33;17.80;99.90
51855;DHT22;37895;53.240;6.572;2023-06-10T07:38:59;17.80;99.90
51855;DHT22;37895;53.240;6.572;2023-06-10T07:47:34;18.00;99.90
51855;DHT22;37895;53.240;6.572;2023-06-10T07:50:00;18.00;99.90
51855;DHT22;37895;53.240;6.572;2023-06-10T07:52:25;18.10;99.90
51855;DHT22;37895;53.240;6.572;2023-06-10T07:54:51;18.10;99.90
51855;DHT22;37895;53.240;6.572;2023-06-10T07:57:18;18.20;99.90
51855;DHT22;37895;53.240;6.572;2023-06-10T07:59:44;18.20;99.90
51855;DHT22;37895;53.240;6.572;2023-06-10T08:02:10;18.30;99.90
51855;DHT22;37895;53.240;6.572;2023-06-10T08:04:35;18.30;99.90
51855;DHT22;37895;53.240;6.572;2023-06-10T08:07:01;18.30;99.90
51855;DHT22;37895;53.240;6.572;2023-06-10T08:09:27;18.40;99.90
51855;DHT22;37895;53.240;6.572;2023-06-10T08:11:53;18.40;99.90
51855;DHT22;37895;53.240;6.572;2023-06-10T08:14:19;18.50;99.90
51855;DHT22;37895;53.240;6.572;2023-06-10T08:16:45;18.50;99.90
51855;DHT22;37895;53.240;6.572;2023-06-10T08:19:11;18.60;99.90
51855;DHT22;37895;53.240;6.572;2023-06-10T08:21:36;18.60;99.90
51855;DHT22;37895;53.240;6.572;2023-06-10T08:24:05;18.70;99.90
51855;DHT22;37895;53.240;6.572;2023-06-10T08:26:31;18.70;99.90
51855;DHT22;37895;53.240;6.572;2023-06-10T08:28:57;18.80;99.90
51855;DHT22;37895;53.240;6.572;2023-06-10T08:31:22;18.90;99.90
51855;DHT22;37895;53.240;6.572;2023-06-10T08:33:48;19.00;99.90
51855;DHT22;37895;53.240;6.572;2023-06-10T08:36:13;19.10;99.90
51855;DHT22;37895;53.240;6.572;2023-06-10T08:38:39;19.10;99.80
51855;DHT22;37895;53.240;6.572;2023-06-10T08:41:06;19.20;99.80
51855;DHT22;37895;53.240;6.572;2023-06-10T08:46:08;19.40;99.40
51855;DHT22;37895;53.240;6.572;2023-06-10T08:48:41;19.50;99.20
51855;DHT22;37895;53.240;6.572;2023-06-10T08:51:10;19.50;99.10
51855;DHT22;37895;53.240;6.572;2023-06-10T08:53:38;19.60;99.00
51855;DHT22;37895;53.240;6.572;2023-06-10T08:56:09;19.70;99.00
51855;DHT22;37895;53.240;6.572;2023-06-10T08:58:35;19.80;99.10
51855;DHT22;37895;53.240;6.572;2023-06-10T09:01:10;19.80;98.70
51855;DHT22;37895;53.240;6.572;2023-06-10T09:03:37;19.90;98.90
51855;DHT22;37895;53.240;6.572;2023-06-10T09:06:05;19.90;98.60
51855;DHT22;37895;53.240;6.572;2023-06-10T09:08:31;20.00;98.40
51855;DHT22;37895;53.240;6.572;2023-06-10T09:10:58;20.00;98.00
51855;DHT22;37895;53.240;6.572;2023-06-10T09:13:24;20.00;98.00
51855;DHT22;37895;53.240;6.572;2023-06-10T09:15:49;20.10;98.20
51855;DHT22;37895;53.240;6.572;2023-06-10T09:18:16;20.10;98.20
51855;DHT22;37895;53.240;6.572;2023-06-10T09:20:43;20.20;98.20
51855;DHT22;37895;53.240;6.572;2023-06-10T09:23:09;20.30;98.00
51855;DHT22;37895;53.240;6.572;2023-06-10T09:25:36;20.30;97.90
51855;DHT22;37895;53.240;6.572;2023-06-10T09:28:03;20.40;97.70
51855;DHT22;37895;53.240;6.572;2023-06-10T09:30:33;20.40;97.40
51855;DHT22;37895;53.240;6.572;2023-06-10T09:36:22;20.60;96.90
51855;DHT22;37895;53.240;6.572;2023-06-10T09:38:49;20.60;97.10
51855;DHT22;37895;53.240;6.572;2023-06-10T09:41:16;20.70;97.00
51855;DHT22;37895;53.240;6.572;2023-06-10T09:43:45;20.70;96.90
51855;DHT22;37895;53.240;6.572;2023-06-10T09:46:20;20.80;96.20
51855;DHT22;37895;53.240;6.572;2023-06-10T09:48:47;20.90;96.30
51855;DHT22;37895;53.240;6.572;2023-06-10T09:51:14;20.90;96.10
51855;DHT22;37895;53.240;6.572;2023-06-10T09:53:41;21.00;96.10
51855;DHT22;37895;53.240;6.572;2023-06-10T09:56:06;21.10;96.00
51855;DHT22;37895;53.240;6.572;2023-06-10T09:58:37;21.10;95.80
51855;DHT22;37895;53.240;6.572;2023-06-10T10:01:10;21.20;95.30
51855;DHT22;37895;53.240;6.572;2023-06-10T10:03:52;21.30;95.50
51855;DHT22;37895;53.240;6.572;2023-06-10T10:06:19;21.40;95.40
51855;DHT22;37895;53.240;6.572;2023-06-10T10:08:50;21.50;95.50
51855;DHT22;37895;53.240;6.572;2023-06-10T10:11:20;21.70;95.90
51855;DHT22;37895;53.240;6.572;2023-06-10T10:13:52;21.80;95.60
51855;DHT22;37895;53.240;6.572;2023-06-10T10:16:30;21.90;95.20
51855;DHT22;37895;53.240;6.572;2023-06-10T10:19:07;21.90;94.20
51855;DHT22;37895;53.240;6.572;2023-06-10T10:21:39;22.00;94.20
51855;DHT22;37895;53.240;6.572;2023-06-10T10:26:34;22.20;93.90
51855;DHT22;37895;53.240;6.572;2023-06-10T10:29:16;22.20;93.90
51855;DHT22;37895;53.240;6.572;2023-06-10T10:31:46;22.30;93.90
51855;DHT22;37895;53.240;6.572;2023-06-10T10:38:11;22.50;93.50
51855;DHT22;37895;53.240;6.572;2023-06-10T10:40:37;22.70;93.10
51855;DHT22;37895;53.240;6.572;2023-06-10T10:43:03;22.70;92.40
51855;DHT22;37895;53.240;6.572;2023-06-10T10:45:29;22.70;92.00
51855;DHT22;37895;53.240;6.572;2023-06-10T10:47:55;22.80;92.90
51855;DHT22;37895;53.240;6.572;2023-06-10T10:50:22;22.90;92.90
51855;DHT22;37895;53.240;6.572;2023-06-10T10:52:54;23.00;92.90
51855;DHT22;37895;53.240;6.572;2023-06-10T10:55:22;23.10;93.40
51855;DHT22;37895;53.240;6.572;2023-06-10T11:00:33;23.30;92.10
51855;DHT22;37895;53.240;6.572;2023-06-10T11:03:07;23.30;92.10
51855;DHT22;37895;53.240;6.572;2023-06-10T11:08:08;23.40;91.60
51855;DHT22;37895;53.240;6.572;2023-06-10T11:10:38;23.50;91.30
51855;DHT22;37895;53.240;6.572;2023-06-10T11:13:15;23.70;91.40
51855;DHT22;37895;53.240;6.572;2023-06-10T11:15:48;23.70;90.40
51855;DHT22;37895;53.240;6.572;2023-06-10T11:18:27;23.80;90.30
51855;DHT22;37895;53.240;6.572;2023-06-10T11:21:02;23.90;90.40
51855;DHT22;37895;53.240;6.572;2023-06-10T11:26:12;24.20;91.70
51855;DHT22;37895;53.240;6.572;2023-06-10T11:28:42;24.30;92.10
51855;DHT22;37895;53.240;6.572;2023-06-10T11:33:58;24.30;90.80
51855;DHT22;37895;53.240;6.572;2023-06-10T11:36:26;24.30;90.60
51855;DHT22;37895;53.240;6.572;2023-06-10T11:38:57;24.40;90.80
51855;DHT22;37895;53.240;6.572;2023-06-10T11:41:24;24.50;90.70
51855;DHT22;37895;53.240;6.572;2023-06-10T11:43:53;24.50;91.20
51855;DHT22;37895;53.240;6.572;2023-06-10T11:46:21;24.50;90.70
51855;DHT22;37895;53.240;6.572;2023-06-10T11:48:57;24.50;90.70
51855;DHT22;37895;53.240;6.572;2023-06-10T11:51:26;24.60;90.00
51855;DHT22;37895;53.240;6.572;2023-06-10T11:53:52;24.60;90.90
51855;DHT22;37895;53.240;6.572;2023-06-10T11:56:23;24.60;89.90
51855;DHT22;37895;53.240;6.572;2023-06-10T11:58:59;24.60;90.00
51855;DHT22;37895;53.240;6.572;2023-06-10T12:01:30;24.70;90.00
51855;DHT22;37895;53.240;6.572;2023-06-10T12:04:00;24.80;90.40
51855;DHT22;37895;53.240;6.572;2023-06-10T12:06:26;24.80;89.90
51855;DHT22;37895;53.240;6.572;2023-06-10T12:08:54;24.90;87.10
51855;DHT22;37895;53.240;6.572;2023-06-10T12:11:20;25.00;87.40
51855;DHT22;37895;53.240;6.572;2023-06-10T12:13:47;25.10;88.70
51855;DHT22;37895;53.240;6.572;2023-06-10T12:16:15;25.20;89.60
51855;DHT22;37895;53.240;6.572;2023-06-10T12:18:46;25.30;89.30
51855;DHT22;37895;53.240;6.572;2023-06-10T12:21:23;25.40;89.20
51855;DHT22;37895;53.240;6.572;2023-06-10T12:24:06;25.30;87.50
51855;DHT22;37895;53.240;6.572;2023-06-10T12:26:43;25.40;89.60
51855;DHT22;37895;53.240;6.572;2023-06-10T12:29:19;25.50;88.60
51855;DHT22;37895;53.240;6.572;2023-06-10T12:32:12;25.60;88.80
51855;DHT22;37895;53.240;6.572;2023-06-10T12:34:40;25.70;90.40
51855;DHT22;37895;53.240;6.572;2023-06-10T12:37:10;25.80;89.60
51855;DHT22;37895;53.240;6.572;2023-06-10T12:39:39;25.70;89.10
51855;DHT22;37895;53.240;6.572;2023-06-10T12:42:05;25.70;90.10
51855;DHT22;37895;53.240;6.572;2023-06-10T12:44:38;25.80;90.00
51855;DHT22;37895;53.240;6.572;2023-06-10T12:47:08;25.90;89.30
51855;DHT22;37895;53.240;6.572;2023-06-10T12:49:35;25.90;89.70
51855;DHT22;37895;53.240;6.572;2023-06-10T12:52:01;26.00;90.00
51855;DHT22;37895;53.240;6.572;2023-06-10T12:54:27;25.90;89.50
51855;DHT22;37895;53.240;6.572;2023-06-10T12:56:52;26.00;89.00
51855;DHT22;37895;53.240;6.572;2023-06-10T12:59:18;26.20;88.50
51855;DHT22;37895;53.240;6.572;2023-06-10T13:01:49;26.30;89.00
51855;DHT22;37895;53.240;6.572;2023-06-10T13:04:16;26.60;88.60
51855;DHT22;37895;53.240;6.572;2023-06-10T13:06:41;26.70;86.90
51855;DHT22;37895;53.240;6.572;2023-06-10T13:09:07;26.80;85.30
51855;DHT22;37895;53.240;6.572;2023-06-10T13:11:33;26.70;86.00
51855;DHT22;37895;53.240;6.572;2023-06-10T13:13:59;26.60;86.80
51855;DHT22;37895;53.240;6.572;2023-06-10T13:16:25;26.80;86.90
51855;DHT22;37895;53.240;6.572;2023-06-10T13:18:52;27.00;86.80
51855;DHT22;37895;53.240;6.572;2023-06-10T13:21:18;27.10;86.70
51855;DHT22;37895;53.240;6.572;2023-06-10T13:23:44;27.20;86.50
51855;DHT22;37895;53.240;6.572;2023-06-10T13:26:13;27.20;86.00
51855;DHT22;37895;53.240;6.572;2023-06-10T13:28:38;27.20;86.10
51855;DHT22;37895;53.240;6.572;2023-06-10T13:31:04;27.40;86.40
51855;DHT22;37895;53.240;6.572;2023-06-10T13:33:30;27.40;86.00
51855;DHT22;37895;53.240;6.572;2023-06-10T13:35:55;27.40;85.40
51855;DHT22;37895;53.240;6.572;2023-06-10T13:38:21;27.40;85.90
51855;DHT22;37895;53.240;6.572;2023-06-10T13:40:46;27.20;85.00
51855;DHT22;37895;53.240;6.572;2023-06-10T13:43:12;27.30;85.90
51855;DHT22;37895;53.240;6.572;2023-06-10T13:45:38;27.40;84.80
51855;DHT22;37895;53.240;6.572;2023-06-10T13:48:04;27.60;84.60
51855;DHT22;37895;53.240;6.572;2023-06-10T13:50:31;27.70;85.10
51855;DHT22;37895;53.240;6.572;2023-06-10T13:52:56;27.60;81.70
51855;DHT22;37895;53.240;6.572;2023-06-10T13:55:22;27.70;79.50
51855;DHT22;37895;53.240;6.572;2023-06-10T13:57:50;28.00;78.40
51855;DHT22;37895;53.240;6.572;2023-06-10T14:00:16;28.20;75.80
51855;DHT22;37895;53.240;6.572;2023-06-10T14:02:42;28.10;74.90
51855;DHT22;37895;53.240;6.572;2023-06-10T14:05:08;28.20;76.00
51855;DHT22;37895;53.240;6.572;2023-06-10T14:07:34;28.40;74.40
51855;DHT22;37895;53.240;6.572;2023-06-10T14:10:00;28.60;72.90
51855;DHT22;37895;53.240;6.572;2023-06-10T14:12:26;28.60;72.60
51855;DHT22;37895;53.240;6.572;2023-06-10T14:14:51;28.50;71.90
51855;DHT22;37895;53.240;6.572;2023-06-10T14:17:17;28.30;69.40
51855;DHT22;37895;53.240;6.572;2023-06-10T14:19:42;28.20;67.60
51855;DHT22;37895;53.240;6.572;2023-06-10T14:22:08;28.30;69.00
51855;DHT22;37895;53.240;6.572;2023-06-10T14:24:35;28.40;69.10
51855;DHT22;37895;53.240;6.572;2023-06-10T14:27:01;28.50;68.30
51855;DHT22;37895;53.240;6.572;2023-06-10T14:29:27;28.70;68.60
51855;DHT22;37895;53.240;6.572;2023-06-10T14:31:55;28.80;67.70
51855;DHT22;37895;53.240;6.572;2023-06-10T14:34:21;29.00;68.20
51855;DHT22;37895;53.240;6.572;2023-06-10T14:36:48;28.90;66.80
51855;DHT22;37895;53.240;6.572;2023-06-10T14:39:14;29.00;67.20
51855;DHT22;37895;53.240;6.572;2023-06-10T14:41:40;29.00;67.50
51855;DHT22;37895;53.240;6.572;2023-06-10T14:44:05;28.90;68.40
51855;DHT22;37895;53.240;6.572;2023-06-10T14:46:31;28.90;68.70
51855;DHT22;37895;53.240;6.572;2023-06-10T14:48:57;28.80;67.00
51855;DHT22;37895;53.240;6.572;2023-06-10T15:43:23;29.00;58.10
51855;DHT22;37895;53.240;6.572;2023-06-10T16:00:56;29.00;56.40
51855;DHT22;37895;53.240;6.572;2023-06-10T16:03:22;29.20;55.80
51855;DHT22;37895;53.240;6.572;2023-06-10T16:05:48;29.30;56.00
51855;DHT22;37895;53.240;6.572;2023-06-10T16:08:13;29.10;55.00
51855;DHT22;37895;53.240;6.572;2023-06-10T16:10:39;29.00;55.70
51855;DHT22;37895;53.240;6.572;2023-06-10T16:13:05;28.90;54.40
51855;DHT22;37895;53.240;6.572;2023-06-10T16:15:30;28.70;54.50
51855;DHT22;37895;53.240;6.572;2023-06-10T16:17:56;28.70;53.60
51855;DHT22;37895;53.240;6.572;2023-06-10T16:20:23;28.50;53.10
51855;DHT22;37895;53.240;6.572;2023-06-10T16:22:49;28.70;54.70
51855;DHT22;37895;53.240;6.572;2023-06-10T16:25:14;28.90;53.00
51855;DHT22;37895;53.240;6.572;2023-06-10T16:27:40;28.80;51.10
51855;DHT22;37895;53.240;6.572;2023-06-10T16:30:06;28.80;52.30
51855;DHT22;37895;53.240;6.572;2023-06-10T16:32:32;28.90;50.90
51855;DHT22;37895;53.240;6.572;2023-06-10T16:34:57;28.90;52.20
51855;DHT22;37895;53.240;6.572;2023-06-10T16:37:23;28.70;53.30
51855;DHT22;37895;53.240;6.572;2023-06-10T16:39:49;28.70;53.40
51855;DHT22;37895;53.240;6.572;2023-06-10T16:42:16;28.50;52.90
51855;DHT22;37895;53.240;6.572;2023-06-10T16:44:41;28.60;53.80
51855;DHT22;37895;53.240;6.572;2023-06-10T16:47:07;28.70;53.10
51855;DHT22;37895;53.240;6.572;2023-06-10T16:49:33;28.80;53.70
51855;DHT22;37895;53.240;6.572;2023-06-10T16:51:59;28.70;54.00
51855;DHT22;37895;53.240;6.572;2023-06-10T16:54:25;28.70;54.10
51855;DHT22;37895;53.240;6.572;2023-06-10T16:56:51;28.60;55.20
51855;DHT22;37895;53.240;6.572;2023-06-10T16:59:16;28.50;62.10
51855;DHT22;37895;53.240;6.572;2023-06-10T17:01:42;28.60;66.10
51855;DHT22;37895;53.240;6.572;2023-06-10T17:04:07;28.60;71.30
51855;DHT22;37895;53.240;6.572;2023-06-10T17:06:33;28.40;76.30
51855;DHT22;37895;53.240;6.572;2023-06-10T17:08:59;28.20;79.00
51855;DHT22;37895;53.240;6.572;2023-06-10T17:11:25;27.90;81.20
51855;DHT22;37895;53.240;6.572;2023-06-10T17:13:51;27.90;81.90